createdAt,value
2022-12-19T00:00:50.292Z,-3.70
2022-12-19T00:03:28.237Z,-3.73
2022-12-19T00:05:56.942Z,-3.71
2022-12-19T00:08:25.414Z,-3.66
2022-12-19T00:11:00.970Z,-3.68
2022-12-19T00:13:35.291Z,-3.61
2022-12-19T00:16:19.136Z,-3.63
2022-12-19T00:18:49.664Z,-3.60
2022-12-19T00:21:22.624Z,-3.66
2022-12-19T00:23:52.112Z,-3.61
2022-12-19T00:26:29.628Z,-3.64
2022-12-19T00:29:03.464Z,-3.60
2022-12-19T00:31:35.683Z,-3.60
2022-12-19T00:34:04.939Z,-3.59
2022-12-19T00:36:34.881Z,-3.55
2022-12-19T00:39:07.731Z,-3.58
2022-12-19T00:41:41.863Z,-3.64
2022-12-19T00:44:16.142Z,-3.64
2022-12-19T00:46:47.153Z,-3.73
2022-12-19T00:49:22.163Z,-3.78
2022-12-19T00:51:50.715Z,-3.81
2022-12-19T00:54:19.329Z,-3.78
2022-12-19T00:56:48.291Z,-3.69
2022-12-19T00:59:18.906Z,-3.73
2022-12-19T01:01:57.996Z,-3.74
2022-12-19T01:04:28.857Z,-3.77
2022-12-19T01:07:01.996Z,-3.74
2022-12-19T01:09:35.108Z,-3.75
2022-12-19T01:12:25.140Z,-3.74
2022-12-19T01:15:04.286Z,-3.73
2022-12-19T01:17:38.698Z,-3.78
2022-12-19T01:20:28.916Z,-3.74
2022-12-19T01:23:00.117Z,-3.74
2022-12-19T01:25:29.716Z,-3.75
2022-12-19T01:27:58.283Z,-3.76
2022-12-19T01:30:30.126Z,-3.80
2022-12-19T01:33:01.208Z,-3.84
2022-12-19T01:35:29.849Z,-3.84
2022-12-19T01:38:08.053Z,-3.85
2022-12-19T01:40:37.681Z,-3.86
2022-12-19T01:43:07.140Z,-3.86
2022-12-19T01:45:45.203Z,-3.88
2022-12-19T01:48:23.082Z,-3.92
2022-12-19T01:51:02.731Z,-3.94
2022-12-19T01:53:49.467Z,-3.97
2022-12-19T01:56:29.590Z,-3.99
2022-12-19T01:59:06.334Z,-4.04
2022-12-19T02:01:50.793Z,-3.99
2022-12-19T02:04:30.247Z,-3.96
2022-12-19T02:07:15.810Z,-3.99
2022-12-19T02:09:56.526Z,-4.02
2022-12-19T02:12:34.430Z,-4.09
2022-12-19T02:15:04.476Z,-4.13
2022-12-19T02:17:52.789Z,-4.12
2022-12-19T02:20:53.017Z,-4.08
2022-12-19T02:24:05.808Z,-4.08
2022-12-19T02:27:01.671Z,-4.10
2022-12-19T02:30:14.843Z,-4.14
2022-12-19T02:33:17.692Z,-4.17
2022-12-19T02:36:08.591Z,-4.21
2022-12-19T02:39:02.762Z,-4.22
2022-12-19T02:41:47.879Z,-4.23
2022-12-19T02:44:58.579Z,-4.25
2022-12-19T02:47:28.855Z,-4.30
2022-12-19T02:49:57.503Z,-4.33
2022-12-19T02:52:26.435Z,-4.40
2022-12-19T02:55:01.805Z,-4.40
2022-12-19T02:58:11.196Z,-4.43
2022-12-19T03:00:56.151Z,-4.49
2022-12-19T03:03:42.997Z,-4.49
2022-12-19T03:06:37.087Z,-4.48
2022-12-19T03:09:20.287Z,-4.50
2022-12-19T03:12:00.764Z,-4.56
2022-12-19T03:14:31.714Z,-4.60
2022-12-19T03:17:08.195Z,-4.64
2022-12-19T03:19:40.229Z,-4.67
2022-12-19T03:22:08.737Z,-4.68
2022-12-19T03:24:37.394Z,-4.70
2022-12-19T03:27:28.619Z,-4.70
2022-12-19T03:30:06.403Z,-4.73
2022-12-19T03:32:38.424Z,-4.80
2022-12-19T03:35:30.720Z,-4.85
2022-12-19T03:38:04.067Z,-4.90
2022-12-19T03:40:35.192Z,-4.97
2022-12-19T03:43:11.544Z,-4.98
2022-12-19T03:45:40.707Z,-4.96
2022-12-19T03:48:20.469Z,-4.92
2022-12-19T03:51:28.575Z,-4.84
2022-12-19T03:54:15.937Z,-4.83
2022-12-19T03:57:00.900Z,-4.79
2022-12-19T03:59:59.517Z,-4.75
2022-12-19T04:02:29.570Z,-4.79
2022-12-19T04:05:05.215Z,-4.80
2022-12-19T04:07:35.366Z,-4.76
2022-12-19T04:10:10.418Z,-4.76
2022-12-19T04:12:43.215Z,-4.82
2022-12-19T04:15:14.158Z,-4.84
2022-12-19T04:17:55.489Z,-4.86
2022-12-19T04:20:31.272Z,-4.89
2022-12-19T04:23:35.999Z,-4.96
2022-12-19T04:26:09.053Z,-5.07
2022-12-19T04:28:51.130Z,-5.13
2022-12-19T04:31:21.535Z,-5.18
2022-12-19T04:33:50.887Z,-5.21
2022-12-19T04:36:20.708Z,-5.27
2022-12-19T04:38:50.328Z,-5.32
2022-12-19T04:41:20.346Z,-5.35
2022-12-19T04:43:49.189Z,-5.41
2022-12-19T04:46:18.909Z,-5.41
2022-12-19T04:48:48.186Z,-5.41
2022-12-19T04:51:19.242Z,-5.43
2022-12-19T04:53:51.425Z,-5.40
2022-12-19T04:56:21.269Z,-5.41
2022-12-19T04:58:50.904Z,-5.45
2022-12-19T05:01:20.164Z,-5.50
2022-12-19T05:03:54.320Z,-5.54
2022-12-19T05:06:24.650Z,-5.53
2022-12-19T05:08:53.539Z,-5.55
2022-12-19T05:11:22.282Z,-5.58
2022-12-19T05:13:51.874Z,-5.58
2022-12-19T05:16:20.622Z,-5.58
2022-12-19T05:18:49.502Z,-5.65
2022-12-19T05:21:18.310Z,-5.71
2022-12-19T05:23:47.219Z,-5.74
2022-12-19T05:26:16.045Z,-5.78
2022-12-19T05:28:44.611Z,-5.79
2022-12-19T05:31:44.249Z,-5.75
2022-12-19T05:34:14.053Z,-5.74
2022-12-19T05:36:43.422Z,-5.77
2022-12-19T05:39:12.549Z,-5.81
2022-12-19T05:41:41.764Z,-5.82
2022-12-19T05:44:11.920Z,-5.84
2022-12-19T05:46:40.796Z,-5.86
2022-12-19T05:49:10.521Z,-5.88
2022-12-19T05:51:39.966Z,-5.83
2022-12-19T05:54:08.650Z,-5.80
2022-12-19T05:56:37.356Z,-5.81
2022-12-19T05:59:06.087Z,-5.84
2022-12-19T06:01:34.964Z,-5.87
2022-12-19T06:04:04.545Z,-5.90
2022-12-19T06:06:33.153Z,-5.93
2022-12-19T06:09:02.821Z,-5.95
2022-12-19T06:11:31.373Z,-5.94
2022-12-19T06:14:00.128Z,-5.91
2022-12-19T06:16:28.680Z,-5.84
2022-12-19T06:18:57.280Z,-5.78
2022-12-19T06:21:26.374Z,-5.71
2022-12-19T06:23:55.519Z,-5.70
2022-12-19T06:26:24.394Z,-5.66
2022-12-19T06:28:55.528Z,-5.62
2022-12-19T06:31:26.090Z,-5.63
2022-12-19T06:33:55.904Z,-5.62
2022-12-19T06:36:28.125Z,-5.60
2022-12-19T06:38:59.481Z,-5.58
2022-12-19T06:41:46.794Z,-5.51
2022-12-19T06:44:17.474Z,-5.45
2022-12-19T06:46:46.093Z,-5.44
2022-12-19T06:49:14.999Z,-5.42
2022-12-19T06:51:43.882Z,-5.42
2022-12-19T06:54:13.865Z,-5.42
2022-12-19T06:56:44.329Z,-5.42
2022-12-19T06:59:15.664Z,-5.40
2022-12-19T07:02:17.726Z,-5.38
2022-12-19T07:04:52.776Z,-5.29
2022-12-19T07:07:21.374Z,-5.30
2022-12-19T07:09:50.042Z,-5.28
2022-12-19T07:12:18.716Z,-5.25
2022-12-19T07:14:52.961Z,-5.25
2022-12-19T07:17:25.137Z,-5.25
2022-12-19T07:19:56.543Z,-5.23
2022-12-19T07:22:30.303Z,-5.19
2022-12-19T07:24:59.639Z,-5.16
2022-12-19T07:27:35.451Z,-5.14
2022-12-19T07:30:08.118Z,-5.12
2022-12-19T07:32:37.248Z,-5.07
2022-12-19T07:35:08.309Z,-4.99
2022-12-19T07:37:37.072Z,-4.95
2022-12-19T07:40:07.070Z,-4.94
2022-12-19T07:42:35.714Z,-4.93
2022-12-19T07:45:04.920Z,-4.90
2022-12-19T07:47:33.928Z,-4.94
2022-12-19T07:50:02.843Z,-4.93
2022-12-19T07:52:32.308Z,-4.95
2022-12-19T07:55:01.058Z,-4.92
2022-12-19T07:57:29.752Z,-4.92
2022-12-19T07:59:58.524Z,-4.91
2022-12-19T08:02:27.586Z,-4.89
2022-12-19T08:04:56.591Z,-4.82
2022-12-19T08:07:27.176Z,-4.74
2022-12-19T08:09:56.345Z,-4.71
2022-12-19T08:12:25.322Z,-4.63
2022-12-19T08:14:57.083Z,-4.56
2022-12-19T08:17:26.475Z,-4.57
2022-12-19T08:19:55.371Z,-4.53
2022-12-19T08:22:24.009Z,-4.51
2022-12-19T08:24:52.648Z,-4.47
2022-12-19T08:27:21.273Z,-4.49
2022-12-19T08:29:49.956Z,-4.47
2022-12-19T08:32:21.470Z,-4.46
2022-12-19T08:34:51.318Z,-4.40
2022-12-19T08:37:20.341Z,-4.37
2022-12-19T08:39:49.000Z,-4.30
2022-12-19T08:42:17.864Z,-4.23
2022-12-19T08:44:46.423Z,-4.21
2022-12-19T21:54:03.559Z,-7.60
2022-12-19T21:56:39.273Z,-7.59
2022-12-19T21:59:17.778Z,-7.63
2022-12-19T22:01:46.692Z,-7.64
2022-12-19T22:04:22.821Z,-7.63
2022-12-19T22:06:51.931Z,-7.68
2022-12-19T22:09:23.647Z,-7.70
2022-12-19T22:11:52.588Z,-7.73
2022-12-19T22:14:21.139Z,-7.77
2022-12-19T22:16:50.492Z,-7.80
2022-12-19T22:19:20.348Z,-7.81
2022-12-19T22:21:50.465Z,-7.81
2022-12-19T22:24:20.504Z,-7.81
2022-12-19T22:26:49.169Z,-7.82
2022-12-19T22:29:17.960Z,-7.85
2022-12-19T22:31:47.780Z,-7.86
2022-12-19T22:34:20.211Z,-7.84
2022-12-19T22:36:50.277Z,-7.82
2022-12-19T22:39:20.706Z,-7.79
2022-12-19T22:41:49.857Z,-7.76
2022-12-19T22:44:24.866Z,-7.77
2022-12-19T22:46:53.767Z,-7.78
2022-12-19T22:49:22.405Z,-7.83
2022-12-19T22:51:51.165Z,-7.82
2022-12-19T22:54:19.720Z,-7.81
2022-12-19T22:56:52.256Z,-7.81
2022-12-19T22:59:21.260Z,-7.83
2022-12-19T23:01:50.001Z,-7.86
2022-12-19T23:04:19.088Z,-7.93
2022-12-19T23:06:48.003Z,-7.97
2022-12-19T23:09:18.554Z,-8.01
2022-12-19T23:11:49.663Z,-8.05
2022-12-19T23:14:20.604Z,-8.09
2022-12-19T23:16:49.663Z,-8.10
2022-12-19T23:19:18.955Z,-8.10
2022-12-19T23:21:48.577Z,-8.07
2022-12-19T23:24:19.385Z,-8.07
2022-12-19T23:26:47.924Z,-8.08
2022-12-19T23:29:17.159Z,-8.09
2022-12-19T23:31:47.717Z,-8.13
2022-12-19T23:34:16.818Z,-8.12
2022-12-19T23:37:10.310Z,-8.11
2022-12-19T23:39:34.810Z,-8.13
2022-12-19T23:42:03.535Z,-8.13
2022-12-19T23:44:32.408Z,-8.12
2022-12-19T23:47:03.522Z,-8.11
2022-12-19T23:49:34.032Z,-8.10
2022-12-19T23:52:02.763Z,-8.09
2022-12-19T23:54:31.701Z,-8.06
2022-12-19T23:57:00.371Z,-8.06
2022-12-19T23:59:29.055Z,-8.09
